createdAt,value
2022-10-23T00:04:52.618Z,17.71
2022-10-23T00:09:55.641Z,19.49
2022-10-23T00:14:58.717Z,20.32
2022-10-23T00:20:01.843Z,20.82
2022-10-23T00:25:07.401Z,20.07
2022-10-23T00:30:11.821Z,17.67
2022-10-23T00:35:15.034Z,18.62
2022-10-23T00:40:18.346Z,20.02
2022-10-23T00:45:27.192Z,20.52
2022-10-23T00:50:33.163Z,20.07
2022-10-23T00:55:38.723Z,17.58
2022-10-23T01:00:48.591Z,17.27
2022-10-23T01:06:08.900Z,19.41
2022-10-23T01:11:30.887Z,20.34
2022-10-23T01:16:52.794Z,19.67
2022-10-23T01:22:16.501Z,17.24
2022-10-23T01:27:41.292Z,17.32
2022-10-23T01:33:10.408Z,19.51
2022-10-23T01:38:33.383Z,20.21
2022-10-23T01:43:45.809Z,20.69
2022-10-23T01:48:53.973Z,19.98
2022-10-23T01:54:01.112Z,17.51
2022-10-23T01:59:11.203Z,17.31
2022-10-23T02:04:23.938Z,19.46
2022-10-23T02:09:27.658Z,20.31
2022-10-23T02:14:53.396Z,20.75
2022-10-23T02:20:17.389Z,19.70
2022-10-23T02:25:30.424Z,17.79
2022-10-23T02:30:37.828Z,19.61
2022-10-23T02:35:41.455Z,20.56
2022-10-23T02:40:47.225Z,20.14
2022-10-23T02:46:09.280Z,17.71
2022-10-23T02:51:21.388Z,17.62
2022-10-23T02:57:02.484Z,19.70
2022-10-23T03:02:25.602Z,20.59
2022-10-23T03:07:29.589Z,19.94
2022-10-23T03:12:32.793Z,17.76
2022-10-23T03:17:35.901Z,19.07
2022-10-23T03:22:40.347Z,20.45
2022-10-23T03:27:43.754Z,20.98
2022-10-23T03:32:46.755Z,19.31
2022-10-23T03:37:49.861Z,17.19
2022-10-23T03:42:52.984Z,17.22
2022-10-23T03:47:56.074Z,19.54
2022-10-23T03:52:59.395Z,20.54
2022-10-23T03:58:02.591Z,20.99
2022-10-23T04:03:05.819Z,19.34
2022-10-23T04:08:10.150Z,17.19
2022-10-23T04:13:13.244Z,17.24
2022-10-23T04:18:17.150Z,19.65
2022-10-23T04:23:20.997Z,20.71
2022-10-23T04:28:24.956Z,20.29
2022-10-23T04:33:29.251Z,17.99
2022-10-23T04:38:32.363Z,16.43
2022-10-23T04:43:35.874Z,16.68
2022-10-23T04:48:38.898Z,19.07
2022-10-23T04:53:41.877Z,19.99
2022-10-23T04:58:44.987Z,20.52
2022-10-23T05:03:48.195Z,19.98
2022-10-23T05:08:51.320Z,17.66
2022-10-23T05:13:54.320Z,17.33
2022-10-23T05:18:58.289Z,19.18
2022-10-23T05:24:02.340Z,19.91
2022-10-23T05:29:05.478Z,20.30
2022-10-23T05:34:11.279Z,19.69
2022-10-23T05:39:17.638Z,17.16
2022-10-23T05:44:21.438Z,17.42
2022-10-23T05:49:26.268Z,19.19
2022-10-23T05:54:29.288Z,19.90
2022-10-23T05:59:32.302Z,20.31
2022-10-23T06:04:36.327Z,19.59
2022-10-23T06:09:39.429Z,17.15
2022-10-23T06:14:42.436Z,16.97
2022-10-23T06:19:46.409Z,19.01
2022-10-23T06:24:49.393Z,19.95
2022-10-23T06:29:52.467Z,20.36
2022-10-23T06:34:55.576Z,19.49
2022-10-23T06:39:58.578Z,18.11
2022-10-23T06:45:04.848Z,19.52
2022-10-23T06:50:13.087Z,20.29
2022-10-23T06:55:19.746Z,19.76
2022-10-23T07:00:23.083Z,17.27
2022-10-23T07:05:26.106Z,17.11
2022-10-23T07:10:29.197Z,19.13
2022-10-23T07:15:32.613Z,19.98
2022-10-23T07:20:35.621Z,20.61
2022-10-23T07:25:38.620Z,19.98
2022-10-23T07:30:41.753Z,17.74
2022-10-23T07:35:46.466Z,17.55
2022-10-23T07:40:49.802Z,19.62
2022-10-23T07:45:54.255Z,20.47
2022-10-23T07:51:08.382Z,20.96
2022-10-23T07:56:18.566Z,20.27
2022-10-23T08:01:38.627Z,18.78
2022-10-23T08:06:41.968Z,20.24
2022-10-23T08:11:44.994Z,20.79
2022-10-23T08:16:48.434Z,20.06
2022-10-23T08:21:54.905Z,17.67
2022-10-23T08:26:58.898Z,17.56
2022-10-23T08:32:05.183Z,19.70
2022-10-23T08:37:08.184Z,20.60
2022-10-23T08:42:25.325Z,21.06
2022-10-23T08:47:44.703Z,19.48
2022-10-23T08:52:59.073Z,17.40
2022-10-23T08:58:11.103Z,18.01
2022-10-23T09:03:14.713Z,20.38
2022-10-23T09:08:44.545Z,21.16
2022-10-23T09:14:05.061Z,20.41
2022-10-23T09:19:17.830Z,18.02
2022-10-23T09:24:24.699Z,18.04
2022-10-23T09:29:36.171Z,20.10
2022-10-23T09:34:55.441Z,20.92
2022-10-23T09:40:34.221Z,21.17
2022-10-23T09:45:39.364Z,19.58
2022-10-23T09:50:53.633Z,17.42
2022-10-23T09:56:01.741Z,17.62
2022-10-23T10:01:05.978Z,19.67
2022-10-23T10:06:32.732Z,20.56
2022-10-23T10:11:44.266Z,21.18
2022-10-23T10:16:55.963Z,20.54
2022-10-23T10:22:36.247Z,18.46
2022-10-23T10:28:06.699Z,19.93
2022-10-23T10:33:31.915Z,21.04
2022-10-23T10:38:44.161Z,20.34
2022-10-23T10:44:09.406Z,18.01
2022-10-23T10:49:33.260Z,18.06
2022-10-23T10:55:14.142Z,20.10
2022-10-23T11:00:23.558Z,20.96
2022-10-23T11:05:34.280Z,21.29
2022-10-23T11:10:44.760Z,20.29
2022-10-23T11:15:48.457Z,18.17
2022-10-23T11:21:11.661Z,19.43
2022-10-23T11:26:36.786Z,20.30
2022-10-23T11:32:20.604Z,20.72
2022-10-23T11:37:27.032Z,20.94
2022-10-23T11:42:34.554Z,21.22
2022-10-23T11:47:42.838Z,20.53
2022-10-23T11:53:13.607Z,18.50
2022-10-23T11:58:33.825Z,20.08
2022-10-23T12:04:00.690Z,20.90
2022-10-23T12:09:22.334Z,21.38
2022-10-23T12:14:29.894Z,20.73
2022-10-23T12:19:50.639Z,18.97
2022-10-23T12:25:23.538Z,20.51
2022-10-23T12:30:51.318Z,21.13
2022-10-23T12:36:08.074Z,20.48
2022-10-23T12:41:18.690Z,18.30
2022-10-23T12:46:43.597Z,19.82
2022-10-23T12:52:14.633Z,20.99
2022-10-23T12:57:28.956Z,21.50
2022-10-23T13:02:33.286Z,20.22
2022-10-23T13:07:44.035Z,18.40
2022-10-23T13:13:05.947Z,20.05
2022-10-23T13:18:13.074Z,21.21
2022-10-23T13:23:35.121Z,20.88
2022-10-23T13:28:46.189Z,18.72
2022-10-23T13:34:19.257Z,19.99
2022-10-23T13:39:30.335Z,21.49
2022-10-23T13:44:33.323Z,20.95
2022-10-23T13:49:36.326Z,18.74
2022-10-23T13:54:39.326Z,18.71
2022-10-23T13:59:43.055Z,20.88
2022-10-23T14:04:47.460Z,20.88
2022-10-23T14:09:50.788Z,18.93
2022-10-23T14:14:54.209Z,20.19
2022-10-23T14:19:57.213Z,21.34
2022-10-23T14:25:00.357Z,21.05
2022-10-23T14:30:04.779Z,18.83
2022-10-23T14:35:08.607Z,18.67
2022-10-23T14:40:11.991Z,20.81
2022-10-23T14:45:15.047Z,21.71
2022-10-23T14:50:19.226Z,21.22
2022-10-23T14:55:22.436Z,19.01
2022-10-23T15:00:26.067Z,17.58
2022-10-23T15:05:29.157Z,17.94
2022-10-23T15:10:32.267Z,20.29
2022-10-23T15:15:35.377Z,21.40
2022-10-23T15:20:38.416Z,21.01
2022-10-23T15:25:42.305Z,18.83
2022-10-23T15:30:46.329Z,17.41
2022-10-23T15:35:50.433Z,17.71
2022-10-23T15:41:13.746Z,20.07
2022-10-23T15:46:16.745Z,21.15
2022-10-23T15:51:21.029Z,20.18
2022-10-23T15:56:25.863Z,18.14
2022-10-23T16:01:29.520Z,16.79
2022-10-23T16:06:32.957Z,17.32
2022-10-23T16:11:39.350Z,19.67
2022-10-23T16:16:42.864Z,20.53
2022-10-23T16:21:46.065Z,20.11
2022-10-23T16:26:53.342Z,17.88
2022-10-23T16:31:57.809Z,16.38
2022-10-23T16:37:00.933Z,16.88
2022-10-23T16:42:04.772Z,19.70
2022-10-23T16:47:07.956Z,19.60
2022-10-23T16:52:11.153Z,17.34
2022-10-23T16:57:14.272Z,15.91
2022-10-23T17:02:17.581Z,16.48
2022-10-23T17:12:25.418Z,19.03
2022-10-23T17:17:28.463Z,16.86
2022-10-23T17:22:31.844Z,15.50
2022-10-23T17:27:35.050Z,16.11
2022-10-23T17:32:38.262Z,18.85
2022-10-23T17:37:41.298Z,18.80
2022-10-23T17:42:44.692Z,16.59
2022-10-23T17:47:48.193Z,15.18
2022-10-23T17:52:51.600Z,15.47
2022-10-23T17:57:54.707Z,17.97
2022-10-23T18:02:57.822Z,19.02
2022-10-23T18:08:01.331Z,18.22
2022-10-23T18:13:04.435Z,16.10
2022-10-23T18:18:08.161Z,14.78
2022-10-23T18:23:11.468Z,15.18
2022-10-23T18:28:14.496Z,17.60
2022-10-23T18:33:18.705Z,18.73
2022-10-23T18:38:21.843Z,18.30
2022-10-23T18:43:42.450Z,16.04
2022-10-23T18:48:50.945Z,14.45
2022-10-23T18:53:55.106Z,14.82
2022-10-23T18:59:01.957Z,17.34
2022-10-23T19:04:06.578Z,18.46
2022-10-23T19:09:13.810Z,18.04
2022-10-23T19:14:18.365Z,15.82
2022-10-23T19:19:30.483Z,14.38
2022-10-23T19:24:51.141Z,13.28
2022-10-23T19:29:55.546Z,14.07
2022-10-23T19:35:01.390Z,16.74
2022-10-23T19:40:07.100Z,18.00
2022-10-23T19:45:14.821Z,17.73
2022-10-23T19:50:18.101Z,15.57
2022-10-23T19:55:21.206Z,14.24
2022-10-23T20:00:24.434Z,14.62
2022-10-23T20:05:27.830Z,17.16
2022-10-23T20:10:31.039Z,18.38
2022-10-23T20:15:38.223Z,18.12
2022-10-23T20:20:43.175Z,15.97
2022-10-23T20:25:46.202Z,14.64
2022-10-23T20:30:49.300Z,15.06
2022-10-23T20:35:53.053Z,17.63
2022-10-23T20:41:00.506Z,18.87
2022-10-23T20:46:06.270Z,18.55
2022-10-23T20:51:15.612Z,16.37
2022-10-23T20:56:32.446Z,15.00
2022-10-23T21:01:36.466Z,15.48
2022-10-23T21:06:57.484Z,17.94
2022-10-23T21:12:04.759Z,19.15
2022-10-23T21:17:09.171Z,18.81
2022-10-23T21:22:12.401Z,16.70
2022-10-23T21:27:15.592Z,15.25
2022-10-23T21:32:21.159Z,15.48
2022-10-23T21:37:25.798Z,17.90
2022-10-23T21:47:38.767Z,18.76
2022-10-23T21:52:42.267Z,16.56
2022-10-23T21:57:45.592Z,15.00
2022-10-23T22:02:49.134Z,15.25
2022-10-23T22:07:52.418Z,17.71
2022-10-23T22:12:55.522Z,18.88
2022-10-23T22:18:00.165Z,19.53
2022-10-23T22:23:03.183Z,18.94
2022-10-23T22:28:06.378Z,16.66
2022-10-23T22:33:09.392Z,15.14
2022-10-23T22:38:12.490Z,15.43
2022-10-23T22:43:15.496Z,17.90
2022-10-23T22:48:18.645Z,18.95
2022-10-23T22:53:21.703Z,19.45
2022-10-23T22:58:26.451Z,18.68
2022-10-23T23:03:29.630Z,16.27
2022-10-23T23:08:34.418Z,14.75
2022-10-23T23:13:37.406Z,15.36
2022-10-23T23:18:40.445Z,18.28
2022-10-23T23:23:43.720Z,19.48
2022-10-23T23:28:52.113Z,18.88
2022-10-23T23:33:55.869Z,16.42
2022-10-23T23:38:59.429Z,14.82
2022-10-23T23:44:02.495Z,15.05
2022-10-23T23:49:05.528Z,17.45
2022-10-23T23:54:08.809Z,18.44
2022-10-23T23:59:11.912Z,18.83
